Spring Grove, Nebraska
Current Conditions -  °F | °C
As of 5:55 AM on Thursday 27 Nov 2014 (Local Time) from KHDE Reporting Station
Clear Clear  
Wind Chill: 11°   Ceiling: Unl
Heat Index: 18°   Visibility: 10mi
Dew Point: 14°   Wind: 5mph
Humidity: 86%   Direction: 170°S
Pressure: 30.4"   Gusts: NA
Location:  40.2849°N, 99.6171°W
Report Text: KHDE 271155Z AUTO 17004KT 10SM CLR M08/M10 A3040 RMK AO2 T10781098 11043 21089
Loading
Personal Weather Stations






























Interactive Weather Map New forecast layout! Learn more

10-Day Weather Forecast

Advertisements
Track Severe Weather on mobile